METAR Data
IDs: Format: Raw Decoded Include TAF

Data at: 0345 UTC 21 Sep 2018

KABI 210252Z 15014KT 10SM FEW070 BKN100 22/20 A2993 RMK AO2 SLP110 T02220200 53016
KABI 210152Z 14014KT 10SM FEW090 SCT120 22/21 A2991 RMK AO2 SLP105 T02220206
KABI 210052Z 14014KT 10SM FEW050 FEW085 SCT120 23/20 A2989 RMK AO2 SLP097 T02280200
KABI 202352Z 15014KT 10SM BKN055 OVC070 24/21 A2988 RMK AO2 SLP095 60008 T02440206 10300 20244 53003
KABI 202252Z 11009KT 10SM SCT050 BKN065 OVC080 25/21 A2986 RMK AO2 RAB32E41 SLP089 P0000 T02500211
KABI 202152Z 14012KT 10SM SCT065 BKN110 26/19 A2986 RMK AO2 PK WND 14027/2109 SLP086 T02610194
KABI 202052Z COR 18013G19KT 10SM SCT050 30/18 A2987 RMK AO2 RAB12E23 SLP087 P0002 60008 T03000183 58027
KABI 201952Z 19014G21KT 10SM FEW075 SCT095 BKN120 29/20 A2990 RMK AO2 LTG DSNT SE RAE04 SLP098 P0005 T02940200
KABI 201852Z 21013G22KT 3SM +RA FEW047 BKN060 BKN075 26/21 A2994 RMK AO2 RAB21 SLP114 P0001 T02610211
KABI 201752Z 18014KT 10SM FEW042 29/20 A2995 RMK AO2 SLP116 T02940200 10300 20211 58008
KABI 201652Z 18010KT 10SM SCT027 BKN034 28/20 A2997 RMK AO2 SLP124 T02830200
KABI 201552Z 17012KT 10SM SCT027 BKN034 27/21 A2998 RMK AO2 SLP127 T02670206
KABI 201452Z 18012KT 10SM SCT020 BKN027 25/21 A2998 RMK AO2 SLP125 T02500211 52010
KABI 201352Z 18009KT 10SM CLR 23/21 A2997 RMK AO2 SLP124 T02330211
KABI 201252Z 17005KT 10SM CLR 22/21 A2995 RMK AO2 SLP118 T02170206
KABI 201152Z 16007KT 10SM CLR 21/20 A2995 RMK AO2 SLP114 T02110200 10233 20211 53002
KABI 201052Z 18007KT 10SM CLR 22/19 A2994 RMK AO2 SLP110 T02170194
KABI 200952Z 16007KT 10SM CLR 22/19 A2994 RMK AO2 SLP109 T02170194
KABI 200852Z 16009KT 10SM CLR 23/19 A2994 RMK AO2 SLP110 T02280194 58007
KABI 200752Z 17008KT 10SM CLR 23/19 A2994 RMK AO2 SLP111 T02280194
KABI 200652Z 17005KT 10SM CLR 22/19 A2996 RMK AO2 SLP117 T02220189
KABI 200552Z 18007KT 10SM CLR 23/18 A2996 RMK AO2 SLP119 T02330183 10300 20233 403170200 51009
KABI 200452Z 17007KT 10SM CLR 24/18 A2996 RMK AO2 SLP119 T02390183
KABI 200352Z 16008KT 10SM CLR 25/18 A2995 RMK AO2 SLP115 T02500183
KABI 200252Z 16009KT 10SM CLR 26/18 A2993 RMK AO2 SLP110 T02560183 53018
KABI 200152Z 15007KT 10SM CLR 26/18 A2991 RMK AO2 SLP104 T02610178
KABI 200052Z 15007KT 10SM CLR 27/17 A2989 RMK AO2 SLP098 T02720172
KABI 192352Z 16011KT 10SM CLR 30/17 A2988 RMK AO2 SLP092 T03000172 10317 20283 56012
KABI 192252Z 17012KT 10SM CLR 31/17 A2988 RMK AO2 SLP092 T03110167
KABI 192152Z 16012KT 10SM CLR 31/18 A2989 RMK AO2 SLP095 T03110183
KABI 192052Z 18012KT 10SM SCT055 32/19 A2992 RMK AO2 SLP103 T03170189 57026
KABI 191952Z 18013KT 10SM SCT050 SCT060 32/20 A2994 RMK AO2 SLP110 T03170200
KABI 191852Z 18010KT 10SM SCT044 31/21 A2997 RMK AO2 SLP121 T03110206
KABI 191752Z 18010G17KT 10SM BKN040 28/20 A3000 RMK AO2 SLP132 T02830200 10294 20200 58005
KABI 191652Z 20012KT 10SM SCT028 28/21 A3002 RMK AO2 SLP140 T02830206
KABI 191552Z 19011KT 10SM SCT019 26/21 A3003 RMK AO2 SLP142 T02610206